createdAt,value
2023-03-27T00:01:30.553Z,6.83
2023-03-27T00:04:00.357Z,6.86
2023-03-27T00:06:28.763Z,6.94
2023-03-27T00:08:57.999Z,6.78
2023-03-27T00:11:25.067Z,6.81
2023-03-27T00:13:56.234Z,6.89
2023-03-27T00:16:25.153Z,6.87
2023-03-27T00:18:52.970Z,6.93
2023-03-27T00:21:20.710Z,6.91
2023-03-27T00:23:47.817Z,6.93
2023-03-27T00:26:15.322Z,7.01
2023-03-27T00:28:42.076Z,7.04
2023-03-27T00:31:13.916Z,6.92
2023-03-27T00:33:41.208Z,6.95
2023-03-27T00:36:09.366Z,6.89
2023-03-27T00:38:36.694Z,6.94
2023-03-27T00:41:03.291Z,6.86
2023-03-27T00:43:33.926Z,6.93
2023-03-27T00:46:06.091Z,6.97
2023-03-27T00:48:37.024Z,6.96
2023-03-27T00:51:05.760Z,6.96
2023-03-27T00:53:33.517Z,6.89
2023-03-27T00:56:05.452Z,6.89
2023-03-27T00:58:33.610Z,6.83
2023-03-27T01:01:03.476Z,6.79
2023-03-27T01:03:33.142Z,6.74
2023-03-27T01:06:04.079Z,6.74
2023-03-27T01:08:33.805Z,6.66
2023-03-27T01:11:27.582Z,6.68
2023-03-27T01:14:12.488Z,6.62
2023-03-27T01:17:10.920Z,6.51
2023-03-27T01:20:15.196Z,6.47
2023-03-27T01:22:57.093Z,6.36
2023-03-27T01:25:57.407Z,6.35
2023-03-27T01:28:27.002Z,6.39
2023-03-27T01:31:06.456Z,6.24
2023-03-27T01:33:36.360Z,6.31
2023-03-27T01:36:34.735Z,6.23
2023-03-27T01:39:19.742Z,6.27
2023-03-27T01:41:52.099Z,6.35
2023-03-27T01:44:43.780Z,6.22
2023-03-27T01:47:41.270Z,6.27
2023-03-27T01:50:08.146Z,6.34
2023-03-27T01:52:39.327Z,6.39
2023-03-27T01:55:11.109Z,6.35
2023-03-27T01:57:50.056Z,6.34
2023-03-27T02:00:22.405Z,6.41
2023-03-27T02:03:03.303Z,6.26
2023-03-27T02:05:29.745Z,6.29
2023-03-27T02:08:16.626Z,6.20
2023-03-27T02:10:48.170Z,6.22
2023-03-27T02:13:19.796Z,6.18
2023-03-27T02:15:49.479Z,6.19
2023-03-27T02:18:22.368Z,6.22
2023-03-27T02:20:48.929Z,6.27
2023-03-27T02:23:15.463Z,6.22
2023-03-27T02:25:44.644Z,6.26
2023-03-27T02:28:38.797Z,6.36
2023-03-27T02:31:32.750Z,6.40
2023-03-27T02:34:13.194Z,6.38
2023-03-27T02:37:06.855Z,6.29
2023-03-27T02:39:58.042Z,6.12
2023-03-27T02:42:39.179Z,6.20
2023-03-27T02:45:26.101Z,6.22
2023-03-27T02:48:01.991Z,6.29
2023-03-27T02:50:36.566Z,6.31
2023-03-27T02:53:08.912Z,6.27
2023-03-27T02:55:43.320Z,6.30
2023-03-27T02:58:15.047Z,6.37
2023-03-27T03:00:48.776Z,6.39
2023-03-27T03:03:39.167Z,6.41
2023-03-27T03:06:11.053Z,6.41
2023-03-27T03:08:39.185Z,6.52
2023-03-27T03:11:12.332Z,6.52
2023-03-27T03:13:39.249Z,6.53
2023-03-27T03:16:08.739Z,6.53
2023-03-27T03:18:36.440Z,6.52
2023-03-27T03:21:03.164Z,6.44
2023-03-27T03:23:29.619Z,6.54
2023-03-27T03:25:56.831Z,6.51
2023-03-27T03:28:26.040Z,6.61
2023-03-27T03:30:53.776Z,6.54
2023-03-27T03:33:21.554Z,6.49
2023-03-27T03:35:50.195Z,6.53
2023-03-27T03:38:26.203Z,6.61
2023-03-27T03:40:53.897Z,6.61
2023-03-27T03:43:22.269Z,6.55
2023-03-27T03:45:49.858Z,6.43
2023-03-27T03:48:17.461Z,6.37
2023-03-27T03:50:45.012Z,6.38
2023-03-27T03:53:12.610Z,6.34
2023-03-27T03:55:42.856Z,6.33
2023-03-27T03:58:12.786Z,6.28
2023-03-27T04:00:40.684Z,6.46
2023-03-27T04:03:14.787Z,6.36
2023-03-27T04:05:42.569Z,6.39
2023-03-27T04:08:12.658Z,6.57
2023-03-27T04:10:41.634Z,6.36
2023-03-27T04:13:10.358Z,6.41
2023-03-27T04:15:37.440Z,6.35
2023-03-27T04:18:04.630Z,6.37
2023-03-27T04:20:34.524Z,6.38
2023-03-27T04:23:02.392Z,6.33
2023-03-27T04:25:30.296Z,6.42
2023-03-27T04:27:57.107Z,6.38
2023-03-27T04:30:25.389Z,6.42
2023-03-27T04:32:52.941Z,6.41
2023-03-27T04:35:20.738Z,6.44
2023-03-27T04:37:50.963Z,6.40
2023-03-27T04:40:20.801Z,6.36
2023-03-27T04:42:47.319Z,6.38
2023-03-27T04:45:20.360Z,6.38
2023-03-27T04:47:49.035Z,6.44
2023-03-27T04:50:16.279Z,6.38
2023-03-27T04:52:43.046Z,6.36
2023-03-27T04:55:12.547Z,6.39
2023-03-27T04:57:39.717Z,6.41
2023-03-27T05:00:19.205Z,6.40
2023-03-27T05:02:52.749Z,6.38
2023-03-27T05:05:19.776Z,6.45
2023-03-27T05:07:47.906Z,6.45
2023-03-27T05:10:17.222Z,6.37
2023-03-27T05:12:49.785Z,6.32
2023-03-27T05:15:18.093Z,6.26
2023-03-27T05:17:47.020Z,6.22
2023-03-27T05:20:17.125Z,6.01
2023-03-27T05:22:47.506Z,5.89
2023-03-27T05:25:14.345Z,5.95
2023-03-27T05:27:48.525Z,5.99
2023-03-27T05:30:17.103Z,5.82
2023-03-27T05:32:51.967Z,5.76
2023-03-27T05:35:21.636Z,5.68
2023-03-27T05:37:50.021Z,5.59
2023-03-27T05:40:21.874Z,5.56
2023-03-27T05:42:49.840Z,5.62
2023-03-27T05:45:17.040Z,5.56
2023-03-27T05:47:50.566Z,5.61
2023-03-27T05:50:19.199Z,5.65
2023-03-27T05:52:46.412Z,5.54
2023-03-27T05:55:16.986Z,5.66
2023-03-27T05:57:43.756Z,5.66
2023-03-27T06:00:16.610Z,5.73
2023-03-27T06:02:46.467Z,5.78
2023-03-27T06:05:16.511Z,5.81
2023-03-27T06:07:44.024Z,5.76
2023-03-27T06:10:14.442Z,5.75
2023-03-27T06:12:48.310Z,5.79
2023-03-27T06:15:15.829Z,5.82
2023-03-27T06:17:47.560Z,5.79
2023-03-27T06:20:15.774Z,5.85
2023-03-27T06:22:47.752Z,5.86
2023-03-27T06:25:15.541Z,5.82
2023-03-27T06:27:45.422Z,5.93
2023-03-27T06:30:14.873Z,5.98
2023-03-27T06:32:46.452Z,5.99
2023-03-27T06:35:14.715Z,5.94
2023-03-27T06:37:48.271Z,5.94
2023-03-27T06:40:24.149Z,5.91
2023-03-27T06:43:13.793Z,5.86
2023-03-27T06:45:45.697Z,5.76
2023-03-27T06:48:21.427Z,5.74
2023-03-27T06:50:50.890Z,5.70
2023-03-27T06:55:48.377Z,5.54
2023-03-27T06:58:15.426Z,5.68
2023-03-27T07:00:45.342Z,5.75
2023-03-27T07:03:15.110Z,5.72
2023-03-27T07:05:43.896Z,5.80
2023-03-27T07:08:21.682Z,5.92
2023-03-27T07:10:59.783Z,5.79
2023-03-27T07:13:37.098Z,5.79
2023-03-27T07:16:04.582Z,5.79
2023-03-27T07:18:31.706Z,5.73
2023-03-27T07:20:58.412Z,5.71
2023-03-27T07:23:25.534Z,5.66
2023-03-27T07:25:52.201Z,5.65
2023-03-27T07:28:19.500Z,5.63
2023-03-27T07:30:46.365Z,5.79
2023-03-27T07:33:14.265Z,5.71
2023-03-27T07:35:46.211Z,5.74
2023-03-27T07:38:14.258Z,5.83
2023-03-27T07:40:46.492Z,5.77
2023-03-27T07:43:16.788Z,5.76
2023-03-27T07:45:44.821Z,5.74
2023-03-27T07:48:16.758Z,5.73
2023-03-27T07:50:46.527Z,5.75
2023-03-27T07:53:33.198Z,5.74
2023-03-27T07:56:01.342Z,5.70
2023-03-27T07:58:27.962Z,5.73
2023-03-27T08:01:02.800Z,5.75
2023-03-27T08:03:31.151Z,5.71
2023-03-27T08:06:00.523Z,5.77
2023-03-27T08:08:27.767Z,5.93
2023-03-27T08:10:55.625Z,5.93
2023-03-27T08:13:22.635Z,5.83
2023-03-27T08:15:49.839Z,5.89
2023-03-27T08:18:16.439Z,5.64
2023-03-27T08:20:45.751Z,5.68
2023-03-27T08:23:15.283Z,5.64
2023-03-27T08:25:43.830Z,5.80
2023-03-27T08:28:11.719Z,5.92
2023-03-27T08:30:38.546Z,5.94
2023-03-27T08:33:05.421Z,6.12
2023-03-27T08:35:32.475Z,6.33
2023-03-27T08:37:59.301Z,6.38
2023-03-27T08:40:31.098Z,6.60
2023-03-27T08:43:03.982Z,6.75
2023-03-27T08:45:45.530Z,6.95
2023-03-27T08:48:24.228Z,6.96
2023-03-27T08:50:59.267Z,7.16
2023-03-27T08:53:34.377Z,7.34
2023-03-27T08:56:01.356Z,7.45
2023-03-27T08:58:27.971Z,7.66
2023-03-27T09:01:06.981Z,7.83
2023-03-27T09:03:47.255Z,7.74
2023-03-27T09:06:34.195Z,7.65
2023-03-27T09:09:09.911Z,7.61
2023-03-27T09:11:48.695Z,7.47
2023-03-27T09:14:27.556Z,7.40
2023-03-27T09:17:00.192Z,7.38
2023-03-27T09:19:56.709Z,7.54
2023-03-27T09:22:31.313Z,7.72
2023-03-27T09:25:04.136Z,7.73
2023-03-27T09:27:35.803Z,7.85
2023-03-27T09:30:13.333Z,7.84
2023-03-27T09:32:40.097Z,7.50
2023-03-27T09:35:06.864Z,7.23
2023-03-27T09:37:36.445Z,6.90
2023-03-27T09:40:07.698Z,6.95
2023-03-27T09:42:39.633Z,6.98
2023-03-27T09:45:10.066Z,7.01
2023-03-27T09:47:43.330Z,7.03
2023-03-27T09:50:28.005Z,7.10
2023-03-27T09:53:15.128Z,7.32
2023-03-27T09:55:50.475Z,7.43
2023-03-27T09:58:31.967Z,7.52
2023-03-27T10:01:17.129Z,7.37
2023-03-27T10:03:52.545Z,7.26
2023-03-27T10:06:31.043Z,7.32
2023-03-27T10:09:07.059Z,7.10
2023-03-27T10:11:35.891Z,7.29
2023-03-27T10:14:13.780Z,7.53
2023-03-27T10:16:42.770Z,7.85
2023-03-27T10:19:27.038Z,7.96
2023-03-27T10:21:55.905Z,8.31
2023-03-27T10:24:44.696Z,8.41
2023-03-27T10:27:20.382Z,8.51
2023-03-27T10:29:46.966Z,8.76
2023-03-27T10:32:13.869Z,8.81
2023-03-27T10:34:50.571Z,9.12
2023-03-27T10:37:27.335Z,9.69
2023-03-27T10:40:00.333Z,10.20
2023-03-27T10:42:31.242Z,10.14
2023-03-27T10:44:58.710Z,9.65
2023-03-27T10:47:30.181Z,9.35
2023-03-27T10:50:23.049Z,9.24
2023-03-27T10:52:52.221Z,9.24
2023-03-27T10:55:55.742Z,9.18
2023-03-27T10:58:31.205Z,9.07
2023-03-27T11:01:06.104Z,8.76
2023-03-27T11:03:51.100Z,8.56
2023-03-27T11:06:19.960Z,8.40
2023-03-27T11:09:16.015Z,8.44
2023-03-27T11:11:51.343Z,8.50
2023-03-27T11:14:25.264Z,8.42
2023-03-27T11:16:57.064Z,8.25
2023-03-27T11:19:54.615Z,8.34
2023-03-27T11:22:49.517Z,8.67
2023-03-27T11:25:19.802Z,9.04
2023-03-27T11:28:10.943Z,9.24
2023-03-27T11:30:44.937Z,9.27
2023-03-27T11:33:32.212Z,9.24
2023-03-27T11:36:05.574Z,9.08
2023-03-27T11:38:37.362Z,9.16
2023-03-27T11:41:04.401Z,9.19
2023-03-27T11:43:31.516Z,9.34
2023-03-27T11:46:15.999Z,9.36
2023-03-27T11:48:56.557Z,9.31
2023-03-27T11:51:45.995Z,9.28
2023-03-27T11:54:22.317Z,9.32
2023-03-27T11:56:54.634Z,9.50
2023-03-27T11:59:39.498Z,9.30
2023-03-27T12:02:18.389Z,9.30
2023-03-27T12:04:51.295Z,9.37
2023-03-27T12:07:35.859Z,9.31
2023-03-27T12:10:28.516Z,9.42
2023-03-27T12:13:15.991Z,9.38
2023-03-27T12:15:59.515Z,9.55
2023-03-27T12:18:36.076Z,9.45
2023-03-27T12:21:38.035Z,9.62
2023-03-27T12:24:35.662Z,9.76
2023-03-27T12:27:11.113Z,9.59
2023-03-27T12:29:52.968Z,9.76
2023-03-27T12:32:36.005Z,9.65
2023-03-27T12:35:13.716Z,9.71
2023-03-27T12:38:07.605Z,9.67
2023-03-27T12:40:41.960Z,9.74
2023-03-27T12:43:20.986Z,9.91
2023-03-27T12:46:16.381Z,9.89
2023-03-27T12:48:52.816Z,9.63
2023-03-27T12:51:34.689Z,9.68
2023-03-27T12:54:24.033Z,9.52
2023-03-27T12:57:00.278Z,9.66
2023-03-27T12:59:29.008Z,9.61
2023-03-27T13:02:04.797Z,9.41
2023-03-27T13:04:51.440Z,9.54
2023-03-27T13:07:37.528Z,9.51
2023-03-27T13:10:28.214Z,9.74
2023-03-27T13:13:32.500Z,9.76
2023-03-27T13:16:33.333Z,9.57
2023-03-27T13:19:39.233Z,9.40
2023-03-27T13:22:27.940Z,9.29
2023-03-27T13:25:00.391Z,8.95
2023-03-27T13:27:44.401Z,8.74
2023-03-27T13:30:41.429Z,8.79
2023-03-27T13:33:11.961Z,8.96
2023-03-27T13:35:41.410Z,9.09
2023-03-27T13:38:11.532Z,9.19
2023-03-27T13:40:44.474Z,9.35
2023-03-27T13:43:23.120Z,9.40
2023-03-27T13:45:57.380Z,9.13
2023-03-27T13:48:45.264Z,9.18
2023-03-27T13:51:23.987Z,9.31
2023-03-27T13:54:22.808Z,9.24
2023-03-27T13:57:05.358Z,9.18
2023-03-27T13:59:38.661Z,9.11
2023-03-27T14:02:38.636Z,9.06
2023-03-27T14:05:31.465Z,9.00
2023-03-27T14:08:10.393Z,9.08
2023-03-27T14:11:03.014Z,9.11
2023-03-27T14:13:38.552Z,9.17
2023-03-27T14:16:38.268Z,9.18
2023-03-27T14:19:30.812Z,9.04
2023-03-27T14:22:00.168Z,9.03
2023-03-27T14:24:38.182Z,9.02
2023-03-27T14:27:10.931Z,8.91
2023-03-27T14:29:37.452Z,9.04
2023-03-27T14:32:06.516Z,9.19
2023-03-27T14:34:47.213Z,9.43
2023-03-27T14:37:30.430Z,9.61
2023-03-27T14:40:00.171Z,9.60
2023-03-27T14:42:31.937Z,9.31
2023-03-27T14:45:27.466Z,9.34
2023-03-27T14:47:59.702Z,9.29
2023-03-27T14:50:28.603Z,9.35
2023-03-27T14:52:57.774Z,9.57
2023-03-27T14:55:29.746Z,9.66
2023-03-27T14:58:00.604Z,9.53
2023-03-27T15:00:32.036Z,9.68
2023-03-27T15:03:05.271Z,9.83
2023-03-27T15:05:32.153Z,9.67
2023-03-27T15:08:00.189Z,9.69
2023-03-27T15:10:31.616Z,9.92
2023-03-27T15:12:58.346Z,10.09
2023-03-27T15:15:42.776Z,10.13
2023-03-27T15:18:32.959Z,10.13
2023-03-27T15:21:04.412Z,10.15
2023-03-27T15:23:44.309Z,10.07
2023-03-27T15:26:19.206Z,9.54
2023-03-27T15:29:01.765Z,9.33
2023-03-27T15:31:30.118Z,9.34
2023-03-27T15:34:34.442Z,8.97
2023-03-27T15:37:18.649Z,8.94
2023-03-27T15:40:13.509Z,9.10
2023-03-27T15:42:46.541Z,9.24
2023-03-27T15:45:16.745Z,9.43
2023-03-27T15:47:43.472Z,9.43
2023-03-27T15:50:24.195Z,9.24
2023-03-27T15:52:58.124Z,9.23
2023-03-27T15:55:35.828Z,8.87
2023-03-27T15:58:26.926Z,8.73
2023-03-27T16:01:02.261Z,8.68
2023-03-27T16:03:32.586Z,8.86
2023-03-27T16:06:00.407Z,8.95
2023-03-27T16:08:32.634Z,9.08
2023-03-27T16:11:00.851Z,9.02
2023-03-27T16:13:34.562Z,8.98
2023-03-27T16:16:04.353Z,8.90
2023-03-27T16:18:35.260Z,8.78
2023-03-27T16:21:07.034Z,8.75
2023-03-27T16:23:33.635Z,8.72
2023-03-27T16:26:01.490Z,8.64
2023-03-27T16:28:29.901Z,8.60
2023-03-27T16:30:59.245Z,8.62
2023-03-27T16:33:29.678Z,8.48
2023-03-27T16:35:59.632Z,8.30
2023-03-27T16:38:28.914Z,8.19
2023-03-27T16:40:58.486Z,8.14
2023-03-27T16:43:28.760Z,7.97
2023-03-27T16:45:59.339Z,7.96
2023-03-27T16:48:29.001Z,7.96
2023-03-27T16:50:58.809Z,8.14
2023-03-27T16:53:28.980Z,8.31
2023-03-27T16:55:56.972Z,8.29
2023-03-27T16:58:24.524Z,8.39
2023-03-27T17:00:51.253Z,8.44
2023-03-27T17:03:17.828Z,8.41
2023-03-27T17:05:44.440Z,8.40
2023-03-27T17:08:12.990Z,8.40
2023-03-27T17:10:39.492Z,8.50
2023-03-27T17:13:05.940Z,8.46
2023-03-27T17:15:38.874Z,8.29
2023-03-27T17:18:06.233Z,8.22
2023-03-27T17:20:32.802Z,8.21
2023-03-27T17:22:59.286Z,8.19
2023-03-27T17:25:29.078Z,8.20
2023-03-27T17:27:56.833Z,8.18
2023-03-27T17:30:36.726Z,8.19
2023-03-27T17:33:06.082Z,8.17
2023-03-27T17:35:32.564Z,8.17
2023-03-27T17:37:59.064Z,8.03
2023-03-27T17:40:26.728Z,8.07
2023-03-27T17:42:53.164Z,8.13
2023-03-27T17:45:19.682Z,8.03
2023-03-27T17:47:46.205Z,8.03
2023-03-27T17:50:12.655Z,8.04
2023-03-27T17:52:39.084Z,7.92
2023-03-27T17:55:06.493Z,7.83
2023-03-27T17:57:33.064Z,7.86
2023-03-27T17:59:59.583Z,7.80
2023-03-27T18:02:29.233Z,8.12
2023-03-27T18:04:58.642Z,8.07
2023-03-27T18:07:28.829Z,7.84
2023-03-27T18:09:59.267Z,7.85
2023-03-27T18:12:26.664Z,7.75
2023-03-27T18:14:53.323Z,7.64
2023-03-27T18:17:26.670Z,7.62
2023-03-27T18:19:53.548Z,7.56
2023-03-27T18:22:21.445Z,7.49
2023-03-27T18:24:47.948Z,7.52
2023-03-27T18:27:16.101Z,7.43
2023-03-27T18:29:42.588Z,7.46
2023-03-27T18:32:09.039Z,7.31
2023-03-27T18:34:35.781Z,7.42
2023-03-27T18:37:02.289Z,7.38
2023-03-27T18:39:29.246Z,7.36
2023-03-27T18:42:01.586Z,7.32
2023-03-27T18:44:28.269Z,7.40
2023-03-27T18:46:57.498Z,7.40
2023-03-27T18:50:11.062Z,7.46
2023-03-27T18:52:38.332Z,7.14
2023-03-27T18:55:09.187Z,7.15
2023-03-27T18:58:13.482Z,7.34
2023-03-27T19:00:40.623Z,7.29
2023-03-27T19:03:43.365Z,7.23
2023-03-27T19:06:11.978Z,7.19
2023-03-27T19:08:41.944Z,7.23
2023-03-27T19:11:09.931Z,7.18
2023-03-27T19:13:36.507Z,7.22
2023-03-27T19:16:14.937Z,7.16
2023-03-27T19:18:42.015Z,7.18
2023-03-27T19:21:08.528Z,7.21
2023-03-27T19:23:35.003Z,7.18
2023-03-27T19:26:13.431Z,7.13
2023-03-27T19:28:44.111Z,6.95
2023-03-27T19:31:12.568Z,6.96
2023-03-27T19:33:40.276Z,6.79
2023-03-27T19:36:07.493Z,6.85
2023-03-27T19:38:34.066Z,6.75
2023-03-27T19:41:00.785Z,6.67
2023-03-27T19:43:29.945Z,6.60
2023-03-27T19:46:15.093Z,6.49
2023-03-27T19:48:43.875Z,6.43
2023-03-27T19:51:10.393Z,6.37
2023-03-27T19:53:37.721Z,6.30
2023-03-27T19:56:04.384Z,6.33
2023-03-27T19:58:30.870Z,6.38
2023-03-27T20:00:57.756Z,6.29
2023-03-27T20:03:28.193Z,6.31
2023-03-27T20:06:15.613Z,6.27
2023-03-27T20:08:43.335Z,5.84
2023-03-27T20:11:13.660Z,6.25
2023-03-27T20:13:53.100Z,6.09
2023-03-27T20:16:27.726Z,6.06
2023-03-27T20:19:15.897Z,6.07
2023-03-27T20:21:43.484Z,6.07
2023-03-27T20:24:12.360Z,5.99
2023-03-27T20:26:40.584Z,5.86
2023-03-27T20:29:13.170Z,5.71
2023-03-27T20:31:40.835Z,5.67
2023-03-27T20:34:07.922Z,5.88
2023-03-27T20:36:35.250Z,5.59
2023-03-27T20:39:04.682Z,5.33
2023-03-27T20:41:31.394Z,5.57
2023-03-27T20:43:58.916Z,5.45
2023-03-27T20:46:30.630Z,5.45
2023-03-27T20:49:00.252Z,5.33
2023-03-27T20:51:27.350Z,5.20
2023-03-27T20:53:56.801Z,5.12
2023-03-27T20:56:23.862Z,5.11
2023-03-27T20:58:51.458Z,5.04
2023-03-27T21:01:19.492Z,4.90
2023-03-27T21:03:49.383Z,4.70
2023-03-27T21:06:18.765Z,4.46
2023-03-27T21:08:46.515Z,4.36
2023-03-27T21:11:13.802Z,4.25
2023-03-27T21:13:41.195Z,4.15
2023-03-27T21:16:08.169Z,4.11
2023-03-27T21:18:34.786Z,3.91
2023-03-27T21:21:01.383Z,3.92
2023-03-27T21:26:20.173Z,3.81
2023-03-27T21:28:46.598Z,3.77
2023-03-27T21:31:20.514Z,3.84
2023-03-27T21:33:51.594Z,3.87
2023-03-27T21:36:18.128Z,3.96
2023-03-27T21:38:44.694Z,3.96
2023-03-27T21:41:16.191Z,3.98
2023-03-27T21:43:42.767Z,3.94
2023-03-27T21:46:09.303Z,3.95
2023-03-27T21:48:35.856Z,3.85
2023-03-27T21:51:05.384Z,3.90
2023-03-27T21:53:31.922Z,3.94
2023-03-27T21:56:00.101Z,4.01
2023-03-27T21:58:26.963Z,4.16
2023-03-27T22:00:57.031Z,4.19
2023-03-27T22:03:24.832Z,4.16
2023-03-27T22:06:08.003Z,4.07
2023-03-27T22:08:38.303Z,3.92
2023-03-27T22:11:05.390Z,3.92
2023-03-27T22:13:32.528Z,4.02
2023-03-27T22:16:01.530Z,4.01
2023-03-27T22:18:32.236Z,4.07
2023-03-27T22:21:02.090Z,3.78
2023-03-27T22:23:28.859Z,3.87
2023-03-27T22:25:55.466Z,3.92
2023-03-27T22:28:22.050Z,3.94
2023-03-27T22:30:48.617Z,3.79
2023-03-27T22:33:15.322Z,3.67
2023-03-27T22:35:47.796Z,3.62
2023-03-27T22:38:14.772Z,3.60
2023-03-27T22:40:41.194Z,3.48
2023-03-27T22:43:07.691Z,3.38
2023-03-27T22:45:37.233Z,3.41
2023-03-27T22:48:05.592Z,3.62
2023-03-27T22:50:35.993Z,3.74
2023-03-27T22:53:06.387Z,3.55
2023-03-27T22:55:36.000Z,3.30
2023-03-27T22:58:06.085Z,3.31
2023-03-27T23:00:35.760Z,3.42
2023-03-27T23:03:02.950Z,3.36
2023-03-27T23:05:29.721Z,3.36
2023-03-27T23:07:56.189Z,3.31
2023-03-27T23:10:22.637Z,3.28
2023-03-27T23:12:49.131Z,3.38
2023-03-27T23:15:15.744Z,3.27
2023-03-27T23:17:56.910Z,3.24
2023-03-27T23:20:23.456Z,3.18
2023-03-27T23:22:49.961Z,3.19
2023-03-27T23:25:16.478Z,3.16
2023-03-27T23:27:42.893Z,2.97
2023-03-27T23:30:09.681Z,2.93
2023-03-27T23:32:37.900Z,2.80
2023-03-27T23:35:10.678Z,2.78
2023-03-27T23:37:37.370Z,2.65
2023-03-27T23:40:07.934Z,2.55
2023-03-27T23:42:38.162Z,2.42
2023-03-27T23:45:08.176Z,2.41
2023-03-27T23:47:36.407Z,2.38
2023-03-27T23:50:02.995Z,2.41
2023-03-27T23:52:29.446Z,2.46
2023-03-27T23:54:56.244Z,2.33
2023-03-27T23:57:22.863Z,2.26
2023-03-27T23:59:49.327Z,2.12
